Time;durP1;ratioP1;P1;durP2;ratioP2;P2;SDS_P1;SDS_P2;PMS_P1;PMS_P2;Temp;Humidity;BMP_temperature;BMP_pressure;BME280_temperature;BME280_humidity;BME280_pressure;Samples;Min_cycle;Max_cycle;Signal;HPM_P1;HPM_P2
2023/03/06 00:00:00;;;;;;;11.50;8.53;;;2.80;99.90;;;;;;5030221;28;20557;-50
2023/03/06 00:02:28;;;;;;;14.73;9.37;;;2.70;99.90;;;;;;5030709;28;20488;-50
2023/03/06 00:04:55;;;;;;;13.90;8.37;;;2.70;99.90;;;;;;5030605;28;20507;-49
2023/03/06 00:07:22;;;;;;;12.90;8.27;;;2.70;99.90;;;;;;5030139;28;20496;-48
2023/03/06 00:09:49;;;;;;;13.63;9.10;;;2.80;99.90;;;;;;5031049;28;20524;-49
2023/03/06 00:12:16;;;;;;;14.07;8.87;;;2.90;99.90;;;;;;5034171;28;20438;-48
2023/03/06 00:14:42;;;;;;;14.00;9.63;;;3.00;99.90;;;;;;5034612;28;20477;-50
2023/03/06 00:17:09;;;;;;;15.83;9.83;;;3.10;99.90;;;;;;5033404;28;20517;-48
2023/03/06 00:19:38;;;;;;;12.50;8.80;;;3.10;99.90;;;;;;5034099;28;20508;-48
2023/03/06 00:22:05;;;;;;;10.87;9.27;;;3.20;99.90;;;;;;5033996;28;20528;-51
2023/03/06 00:24:32;;;;;;;13.83;9.00;;;3.10;99.90;;;;;;5034358;28;20493;-48
2023/03/06 00:26:58;;;;;;;12.77;8.20;;;3.00;99.90;;;;;;5033010;28;20540;-48
2023/03/06 00:29:25;;;;;;;12.80;9.30;;;3.00;99.90;;;;;;5034139;28;20526;-48
2023/03/06 00:31:52;;;;;;;9.67;8.67;;;3.00;99.90;;;;;;5033691;28;20947;-49
2023/03/06 00:34:19;;;;;;;10.90;8.00;;;3.00;99.90;;;;;;5033962;28;20452;-48
2023/03/06 00:36:47;;;;;;;17.60;9.10;;;3.20;99.90;;;;;;5033605;28;20546;-50
2023/03/06 00:39:14;;;;;;;12.67;9.17;;;3.20;99.90;;;;;;5033826;28;20475;-48
2023/03/06 00:41:41;;;;;;;15.77;9.00;;;3.10;99.90;;;;;;5033310;28;20542;-48
2023/03/06 00:44:08;;;;;;;12.07;9.73;;;3.00;99.90;;;;;;5034131;28;20980;-50
2023/03/06 00:46:35;;;;;;;13.50;9.20;;;3.10;99.90;;;;;;5033926;28;20498;-48
2023/03/06 00:49:02;;;;;;;12.87;10.07;;;3.10;99.90;;;;;;5033780;28;20538;-48
2023/03/06 00:51:29;;;;;;;14.77;9.20;;;2.90;99.90;;;;;;5033070;28;20494;-48
2023/03/06 00:53:57;;;;;;;14.10;9.77;;;2.90;99.90;;;;;;5033586;28;20547;-49
2023/03/06 00:56:24;;;;;;;10.97;9.80;;;3.00;99.90;;;;;;5031862;28;20497;-48
2023/03/06 00:58:51;;;;;;;10.23;8.63;;;2.90;99.90;;;;;;5032107;28;20456;-50
2023/03/06 01:01:18;;;;;;;14.70;10.37;;;3.00;99.90;;;;;;5031868;28;20516;-48
2023/03/06 01:03:45;;;;;;;13.93;8.63;;;2.90;99.90;;;;;;5032063;28;20491;-50
2023/03/06 01:06:12;;;;;;;10.50;8.47;;;3.00;99.90;;;;;;5031893;28;20565;-48
2023/03/06 01:08:38;;;;;;;13.40;8.37;;;3.10;99.90;;;;;;5031958;28;20533;-48
2023/03/06 01:11:07;;;;;;;12.17;8.70;;;3.10;99.90;;;;;;5033131;28;20470;-49
2023/03/06 01:13:34;;;;;;;15.60;9.70;;;3.20;99.90;;;;;;5033357;28;20536;-48
2023/03/06 01:16:08;;;;;;;12.90;8.20;;;3.20;99.90;;;;;;5033218;28;21078;-48
2023/03/06 01:18:36;;;;;;;10.93;8.93;;;3.10;99.90;;;;;;5030829;28;20529;-49
2023/03/06 01:21:03;;;;;;;13.70;8.77;;;3.00;99.90;;;;;;5031557;28;20520;-48
2023/03/06 01:23:30;;;;;;;13.60;9.60;;;3.00;99.90;;;;;;5031166;28;20536;-49
2023/03/06 01:25:57;;;;;;;12.77;8.73;;;2.90;99.90;;;;;;5031995;28;20501;-48
2023/03/06 01:28:26;;;;;;;11.90;8.87;;;2.80;99.90;;;;;;5031432;28;20540;-49
2023/03/06 01:30:53;;;;;;;10.87;8.50;;;2.80;99.90;;;;;;5031557;28;20468;-49
2023/03/06 01:33:20;;;;;;;11.30;9.10;;;2.70;99.90;;;;;;5032861;28;20481;-49
2023/03/06 01:35:47;;;;;;;13.30;8.53;;;2.80;99.90;;;;;;5032981;28;20505;-49
2023/03/06 01:38:14;;;;;;;11.77;8.77;;;2.80;99.90;;;;;;5032889;28;20528;-50
2023/03/06 01:40:41;;;;;;;11.00;9.33;;;2.80;99.90;;;;;;5031274;28;21007;-50
2023/03/06 01:43:27;;;;;;;10.77;9.10;;;2.90;99.90;;;;;;5031541;28;20452;-49
2023/03/06 01:46:31;;;;;;;12.87;9.43;;;3.00;99.90;;;;;;5031436;28;20543;-49
2023/03/06 01:49:02;;;;;;;12.97;10.13;;;3.00;99.90;;;;;;5031049;28;20453;-50
2023/03/06 01:51:33;;;;;;;15.77;9.97;;;3.00;99.90;;;;;;5030387;28;20471;-48
2023/03/06 01:54:05;;;;;;;10.97;7.90;;;3.10;99.90;;;;;;5031485;28;20529;-48
2023/03/06 01:56:32;;;;;;;12.17;9.03;;;3.00;99.90;;;;;;5032942;28;20469;-48
2023/03/06 01:59:01;;;;;;;12.23;9.03;;;2.90;99.90;;;;;;5032033;28;20480;-48
2023/03/06 02:01:29;;;;;;;14.17;9.70;;;2.90;99.90;;;;;;5032527;28;20503;-48
2023/03/06 02:03:56;;;;;;;13.17;8.53;;;2.90;99.90;;;;;;5031909;28;20485;-49
2023/03/06 02:06:23;;;;;;;16.90;10.23;;;3.00;99.90;;;;;;5032409;28;20556;-48
2023/03/06 02:08:52;;;;;;;12.77;9.40;;;3.00;99.90;;;;;;5031311;28;20500;-49
2023/03/06 02:11:21;;;;;;;15.90;10.47;;;2.90;99.90;;;;;;5030456;28;20448;-48
2023/03/06 02:13:49;;;;;;;12.80;8.93;;;2.70;99.90;;;;;;5031024;28;20549;-51
2023/03/06 02:16:19;;;;;;;11.50;9.43;;;2.70;99.90;;;;;;5030890;28;20497;-48
2023/03/06 02:18:47;;;;;;;12.37;8.53;;;2.70;99.90;;;;;;5030518;28;20485;-48
2023/03/06 02:21:19;;;;;;;15.27;9.30;;;2.70;99.90;;;;;;5030271;28;21072;-48
2023/03/06 02:23:56;;;;;;;12.17;7.73;;;2.70;99.90;;;;;;5031034;28;20533;-50
2023/03/06 02:26:26;;;;;;;16.07;10.00;;;2.80;99.90;;;;;;5031933;28;20492;-49
2023/03/06 02:28:56;;;;;;;13.63;9.90;;;2.90;99.90;;;;;;5032268;28;20440;-48
2023/03/06 02:31:25;;;;;;;10.27;8.77;;;2.90;99.90;;;;;;5032092;28;20478;-50
2023/03/06 02:34:04;;;;;;;14.97;10.30;;;2.80;99.90;;;;;;5031923;28;20520;-48
2023/03/06 02:36:32;;;;;;;11.67;8.70;;;2.90;99.90;;;;;;5031974;28;20492;-48
2023/03/06 02:39:00;;;;;;;16.97;9.67;;;3.00;99.90;;;;;;5031233;28;20524;-48
2023/03/06 02:41:28;;;;;;;12.57;8.63;;;3.10;99.90;;;;;;5031689;28;20561;-49
2023/03/06 02:43:55;;;;;;;15.17;8.87;;;3.10;99.90;;;;;;5032046;28;20548;-48
2023/03/06 02:46:22;;;;;;;13.63;9.40;;;3.20;99.90;;;;;;5031686;28;20876;-48
2023/03/06 02:48:49;;;;;;;18.90;13.10;;;3.20;99.90;;;;;;5031185;28;20537;-48
2023/03/06 02:51:16;;;;;;;13.03;9.17;;;3.10;99.90;;;;;;5030761;28;20479;-51
2023/03/06 02:53:43;;;;;;;11.40;8.30;;;3.00;99.90;;;;;;5030977;28;21011;-49
2023/03/06 02:56:10;;;;;;;13.10;9.80;;;3.00;99.90;;;;;;5031849;28;20494;-48
2023/03/06 02:58:38;;;;;;;9.20;7.13;;;2.90;99.90;;;;;;5031507;28;20766;-49
2023/03/06 03:01:05;;;;;;;14.30;9.80;;;2.80;99.90;;;;;;5031535;28;20507;-48
2023/03/06 03:03:33;;;;;;;12.13;9.20;;;2.50;99.90;;;;;;5031395;28;20481;-51
2023/03/06 03:06:00;;;;;;;13.67;10.10;;;2.60;99.90;;;;;;5031089;28;20466;-48
2023/03/06 03:08:27;;;;;;;12.27;8.40;;;2.90;99.90;;;;;;5031577;28;20528;-51
2023/03/06 03:10:55;;;;;;;12.90;8.93;;;3.00;99.90;;;;;;5031334;28;20954;-48
2023/03/06 03:13:22;;;;;;;13.63;9.50;;;3.00;99.90;;;;;;5031304;28;20534;-48
2023/03/06 03:15:59;;;;;;;12.57;8.63;;;3.00;99.90;;;;;;5031286;28;21062;-48
2023/03/06 03:18:26;;;;;;;13.17;9.83;;;3.00;99.90;;;;;;5030734;28;20952;-48
2023/03/06 03:20:53;;;;;;;12.70;9.03;;;3.10;99.90;;;;;;5030890;28;20480;-48
2023/03/06 03:23:20;;;;;;;11.97;8.27;;;2.90;99.90;;;;;;5030444;28;20884;-48
2023/03/06 03:25:47;;;;;;;12.73;8.70;;;2.80;99.90;;;;;;5029795;28;20553;-50
2023/03/06 03:28:14;;;;;;;12.70;9.10;;;2.80;99.90;;;;;;5029686;28;20444;-48
2023/03/06 03:30:42;;;;;;;11.30;8.30;;;2.90;99.90;;;;;;5029121;28;20479;-48
2023/03/06 03:33:10;;;;;;;15.27;9.23;;;2.80;99.90;;;;;;5029927;28;20520;-49
2023/03/06 03:35:37;;;;;;;14.83;9.37;;;2.70;99.90;;;;;;5029097;28;20498;-48
2023/03/06 03:38:04;;;;;;;14.40;8.87;;;2.80;99.90;;;;;;5029985;28;20535;-48
2023/03/06 03:40:31;;;;;;;15.30;8.97;;;2.80;99.90;;;;;;5030872;28;20509;-48
2023/03/06 03:42:58;;;;;;;15.37;9.10;;;2.90;99.90;;;;;;5031232;28;20534;-49
2023/03/06 03:45:25;;;;;;;12.10;8.67;;;2.90;99.90;;;;;;5031570;28;21075;-48
2023/03/06 03:47:52;;;;;;;12.27;8.20;;;2.80;99.90;;;;;;5034671;28;20884;-48
2023/03/06 03:50:20;;;;;;;11.93;9.13;;;2.80;99.90;;;;;;5034914;28;20529;-49
2023/03/06 03:52:47;;;;;;;9.00;7.53;;;2.50;99.90;;;;;;5033957;28;20480;-49
2023/03/06 03:55:14;;;;;;;12.03;8.07;;;2.40;99.90;;;;;;5033637;28;20556;-49
2023/03/06 03:57:41;;;;;;;14.60;8.63;;;2.20;99.90;;;;;;5033418;28;20543;-49
2023/03/06 04:00:14;;;;;;;11.33;8.17;;;2.30;99.90;;;;;;5033087;28;20506;-48
2023/03/06 04:02:42;;;;;;;11.23;8.60;;;2.30;99.90;;;;;;5032312;28;20450;-50
2023/03/06 04:05:09;;;;;;;15.93;9.57;;;2.30;99.90;;;;;;5033204;28;20496;-48
2023/03/06 04:07:38;;;;;;;12.00;8.33;;;2.10;99.90;;;;;;5033399;28;20528;-48
2023/03/06 04:10:06;;;;;;;12.20;8.00;;;2.00;99.90;;;;;;5034220;28;20524;-48
2023/03/06 04:12:33;;;;;;;12.27;8.57;;;2.20;99.90;;;;;;5034865;28;20557;-48
2023/03/06 04:15:00;;;;;;;13.60;7.53;;;2.40;99.90;;;;;;5034808;28;20543;-50
2023/03/06 04:17:27;;;;;;;12.50;8.13;;;2.30;99.90;;;;;;5034220;28;20480;-48
2023/03/06 04:19:54;;;;;;;14.50;8.77;;;2.30;99.90;;;;;;5034203;28;20979;-48
2023/03/06 04:22:21;;;;;;;12.63;7.60;;;2.30;99.90;;;;;;5034005;28;20479;-48
2023/03/06 04:24:49;;;;;;;12.33;7.67;;;2.40;99.90;;;;;;5034528;28;20530;-49
2023/03/06 04:27:16;;;;;;;10.60;9.43;;;2.40;99.90;;;;;;5034119;28;20971;-50
2023/03/06 04:29:43;;;;;;;11.83;8.63;;;2.40;99.90;;;;;;5034718;28;20529;-49
2023/03/06 04:32:10;;;;;;;10.90;7.40;;;2.30;99.90;;;;;;5034107;28;20885;-48
2023/03/06 04:34:37;;;;;;;9.43;7.03;;;2.20;99.90;;;;;;5033657;28;20474;-50
2023/03/06 04:37:04;;;;;;;10.77;7.47;;;2.20;99.90;;;;;;5033645;28;20483;-48
2023/03/06 04:39:31;;;;;;;11.10;7.57;;;2.30;99.90;;;;;;5034176;28;20530;-48
2023/03/06 04:41:59;;;;;;;11.80;8.17;;;2.20;99.90;;;;;;5033732;28;20565;-48
2023/03/06 04:44:27;;;;;;;10.90;8.13;;;2.10;99.90;;;;;;5034682;28;20536;-48
2023/03/06 04:46:54;;;;;;;13.23;7.77;;;2.20;99.90;;;;;;5033877;28;20458;-48
2023/03/06 04:49:21;;;;;;;9.20;7.67;;;2.40;99.90;;;;;;5033646;28;20534;-50
2023/03/06 04:51:48;;;;;;;11.57;8.50;;;2.20;99.90;;;;;;5032803;28;20490;-49
2023/03/06 04:54:15;;;;;;;11.13;7.10;;;2.20;99.90;;;;;;5033985;28;20534;-48
2023/03/06 04:56:42;;;;;;;12.70;8.20;;;2.20;99.90;;;;;;5031792;28;20492;-48
2023/03/06 04:59:10;;;;;;;10.80;7.37;;;2.30;99.90;;;;;;5032716;28;20881;-48
2023/03/06 05:01:37;;;;;;;10.53;7.57;;;2.40;99.90;;;;;;5031824;28;20570;-49
2023/03/06 05:04:04;;;;;;;12.60;9.20;;;2.30;99.90;;;;;;5031346;28;20523;-49
2023/03/06 05:06:31;;;;;;;13.10;7.67;;;2.20;99.90;;;;;;5031420;28;20503;-48
2023/03/06 05:08:58;;;;;;;9.87;8.23;;;2.10;99.90;;;;;;5031429;28;20478;-50
2023/03/06 05:11:25;;;;;;;11.13;7.60;;;1.90;99.90;;;;;;5031946;28;20814;-48
2023/03/06 05:13:52;;;;;;;10.97;8.30;;;1.80;99.90;;;;;;5033557;28;20528;-48
2023/03/06 05:16:20;;;;;;;12.37;8.13;;;1.60;99.90;;;;;;5031596;28;20466;-48
2023/03/06 05:18:47;;;;;;;9.23;7.60;;;1.20;99.90;;;;;;5031433;28;20522;-50
2023/03/06 05:21:14;;;;;;;14.83;9.10;;;1.00;99.90;;;;;;5031413;28;20915;-47
2023/03/06 05:23:41;;;;;;;13.43;9.37;;;0.90;99.90;;;;;;5033455;28;20478;-49
2023/03/06 05:26:09;;;;;;;12.63;9.33;;;0.90;99.90;;;;;;5032162;28;20502;-48
2023/03/06 05:28:36;;;;;;;14.47;9.63;;;1.00;99.90;;;;;;5033030;28;20529;-48
2023/03/06 05:31:03;;;;;;;13.50;8.97;;;1.10;99.90;;;;;;5032657;28;20478;-48
2023/03/06 05:33:33;;;;;;;16.27;9.00;;;0.90;99.90;;;;;;5033355;28;20529;-49
2023/03/06 05:36:00;;;;;;;16.93;10.50;;;0.90;99.90;;;;;;5031873;28;20554;-48
2023/03/06 05:38:27;;;;;;;15.73;9.80;;;0.50;99.90;;;;;;5031972;28;20635;-48
2023/03/06 05:40:54;;;;;;;16.27;10.13;;;0.40;99.90;;;;;;5028175;28;20445;-48
2023/03/06 05:43:21;;;;;;;21.33;10.50;;;0.60;99.90;;;;;;5012793;28;20455;-49
2023/03/06 05:45:49;;;;;;;14.43;9.43;;;1.10;99.90;;;;;;5018851;28;21224;-48
2023/03/06 05:48:16;;;;;;;17.40;10.90;;;1.30;99.90;;;;;;5030425;28;20531;-50
2023/03/06 05:50:44;;;;;;;17.60;11.50;;;1.10;99.90;;;;;;5032792;28;20500;-49
2023/03/06 05:53:11;;;;;;;16.53;10.13;;;0.60;99.90;;;;;;5030425;28;20534;-47
2023/03/06 05:55:38;;;;;;;13.47;10.50;;;0.60;99.90;;;;;;5036866;28;20533;-47
2023/03/06 05:58:05;;;;;;;15.97;9.57;;;0.40;99.90;;;;;;5031888;28;20478;-49
2023/03/06 06:00:31;;;;;;;13.87;11.10;;;0.40;99.90;;;;;;5037832;28;20997;-49
2023/03/06 06:03:00;;;;;;;18.70;11.00;;;0.40;99.90;;;;;;5036532;28;20920;-50
2023/03/06 06:05:27;;;;;;;15.77;10.83;;;0.50;99.90;;;;;;5067117;22;20963;-79
2023/03/06 06:07:56;;;;;;;15.87;9.90;;;0.50;99.90;;;;;;5042432;28;20498;-79
2023/03/06 06:10:22;;;;;;;16.07;11.17;;;0.40;99.90;;;;;;5035215;28;20757;-78
2023/03/06 06:12:49;;;;;;;21.50;11.30;;;0.40;99.90;;;;;;5032300;28;20525;-78
2023/03/06 06:15:16;;;;;;;14.40;9.90;;;0.30;99.90;;;;;;5034673;28;20905;-78
2023/03/06 06:17:43;;;;;;;16.50;11.57;;;0.50;99.90;;;;;;5039320;28;21027;-78
2023/03/06 06:20:11;;;;;;;16.40;11.30;;;0.80;99.90;;;;;;5046883;28;21057;-79
2023/03/06 06:22:38;;;;;;;16.00;10.30;;;0.70;99.90;;;;;;5040847;28;20600;-78
2023/03/06 06:25:08;;;;;;;19.73;12.10;;;0.80;99.90;;;;;;5039872;28;20530;-78
2023/03/06 06:27:35;;;;;;;17.87;11.47;;;1.20;99.90;;;;;;5036778;28;20503;-79
2023/03/06 06:30:02;;;;;;;15.17;11.03;;;1.20;99.90;;;;;;5031680;22;20573;-49
2023/03/06 06:32:29;;;;;;;20.33;11.50;;;1.20;99.90;;;;;;5030334;28;20438;-49
2023/03/06 06:34:55;;;;;;;14.97;11.97;;;1.20;99.90;;;;;;5032312;28;20529;-49
2023/03/06 06:37:23;;;;;;;15.77;11.10;;;1.30;99.90;;;;;;5030595;28;20506;-49
2023/03/06 06:39:50;;;;;;;19.43;10.80;;;1.20;99.90;;;;;;5030086;28;20453;-50
2023/03/06 06:42:18;;;;;;;18.03;11.80;;;1.00;99.90;;;;;;5077146;22;20528;-77
2023/03/06 06:44:45;;;;;;;18.97;11.70;;;1.10;99.90;;;;;;5073045;28;20502;-78
2023/03/06 06:47:12;;;;;;;23.20;12.57;;;1.10;99.90;;;;;;5074912;28;20962;-78
2023/03/06 06:49:39;;;;;;;15.67;10.80;;;1.00;99.90;;;;;;5085812;28;20452;-77
2023/03/06 06:52:06;;;;;;;16.13;11.03;;;1.10;99.90;;;;;;5092293;28;20515;-77
2023/03/06 06:54:34;;;;;;;18.23;12.47;;;1.20;99.90;;;;;;5093220;28;20435;-77
2023/03/06 06:57:01;;;;;;;17.80;11.67;;;1.40;99.90;;;;;;5078173;28;20469;-77
2023/03/06 06:59:29;;;;;;;18.87;12.40;;;1.60;99.90;;;;;;5071261;28;20544;-77
2023/03/06 07:01:56;;;;;;;15.07;10.30;;;1.70;99.90;;;;;;5072154;28;20564;-77
2023/03/06 07:04:23;;;;;;;14.40;11.00;;;1.70;99.90;;;;;;5072568;28;20437;-77
2023/03/06 07:06:50;;;;;;;18.30;12.03;;;1.90;99.90;;;;;;5072636;28;20464;-77
2023/03/06 07:09:17;;;;;;;13.73;10.30;;;1.90;99.90;;;;;;5070691;28;20549;-77
2023/03/06 07:11:44;;;;;;;14.93;10.43;;;1.90;99.90;;;;;;5071174;28;20534;-77
2023/03/06 07:14:10;;;;;;;19.50;12.80;;;2.00;99.90;;;;;;5071401;28;20500;-77
2023/03/06 07:16:39;;;;;;;18.40;11.27;;;2.00;99.90;;;;;;5071932;28;20473;-77
2023/03/06 07:19:06;;;;;;;16.87;10.37;;;2.00;99.90;;;;;;5071743;28;20494;-77
2023/03/06 07:21:33;;;;;;;17.57;11.30;;;2.10;99.90;;;;;;5071428;28;20585;-77
2023/03/06 07:24:00;;;;;;;19.57;11.77;;;2.10;99.90;;;;;;5070070;28;20511;-77
2023/03/06 07:26:29;;;;;;;20.00;12.80;;;2.20;99.90;;;;;;5071386;28;20528;-77
2023/03/06 07:28:56;;;;;;;19.50;13.33;;;2.20;99.90;;;;;;5072106;28;20526;-77
2023/03/06 07:31:26;;;;;;;18.23;13.30;;;2.20;99.90;;;;;;5071692;28;20469;-77
2023/03/06 07:33:55;;;;;;;19.90;14.47;;;2.20;99.90;;;;;;5071764;28;20476;-77
2023/03/06 07:36:22;;;;;;;17.77;13.10;;;2.20;99.90;;;;;;5072168;28;20521;-77
2023/03/06 07:38:49;;;;;;;15.00;12.77;;;2.30;99.90;;;;;;5071559;28;20502;-77
2023/03/06 07:41:17;;;;;;;23.83;13.67;;;2.20;99.90;;;;;;5089733;28;21005;-77
2023/03/06 07:43:46;;;;;;;18.60;13.07;;;2.30;99.90;;;;;;5074010;28;20430;-77
2023/03/06 07:46:14;;;;;;;19.00;12.83;;;2.40;99.90;;;;;;5071758;28;20946;-77
2023/03/06 07:48:41;;;;;;;17.07;12.40;;;2.50;99.90;;;;;;5070883;28;20464;-77
2023/03/06 07:51:15;;;;;;;19.40;12.70;;;2.40;99.90;;;;;;5071827;28;20515;-77
2023/03/06 07:53:42;;;;;;;23.37;12.93;;;2.50;99.90;;;;;;5071179;28;20465;-77
2023/03/06 07:56:10;;;;;;;18.07;12.50;;;2.40;99.90;;;;;;5071885;28;20477;-77
2023/03/06 07:58:38;;;;;;;28.67;13.93;;;2.50;99.90;;;;;;5071710;28;20458;-77
2023/03/06 08:01:05;;;;;;;19.43;12.20;;;2.40;99.90;;;;;;5071545;28;20515;-77
2023/03/06 08:03:33;;;;;;;23.37;16.30;;;2.30;99.90;;;;;;5071465;28;20563;-77
2023/03/06 08:06:10;;;;;;;32.90;20.20;;;2.40;99.90;;;;;;5071301;28;20441;-77
2023/03/06 08:08:38;;;;;;;24.13;16.13;;;2.40;99.90;;;;;;5071667;28;20548;-77
2023/03/06 08:11:05;;;;;;;16.63;13.33;;;2.40;99.90;;;;;;5071787;28;20449;-77
2023/03/06 08:13:32;;;;;;;20.43;12.27;;;2.50;99.90;;;;;;5071501;28;20528;-77
2023/03/06 08:15:59;;;;;;;21.70;13.37;;;2.60;99.90;;;;;;5071677;28;20478;-77
2023/03/06 08:18:26;;;;;;;22.90;13.77;;;2.50;99.90;;;;;;5071030;28;20522;-77
2023/03/06 08:21:02;;;;;;;20.03;13.33;;;2.60;99.90;;;;;;5071497;28;20441;-77
2023/03/06 08:23:31;;;;;;;18.57;13.13;;;2.60;99.90;;;;;;5071027;28;20478;-77
2023/03/06 08:25:58;;;;;;;22.40;12.90;;;2.80;99.90;;;;;;5071507;28;20445;-77
2023/03/06 08:28:26;;;;;;;18.07;14.13;;;2.80;99.90;;;;;;5071815;28;20968;-77
2023/03/06 08:30:53;;;;;;;25.43;17.27;;;2.90;99.90;;;;;;5071566;28;20820;-77
2023/03/06 08:33:19;;;;;;;19.80;14.93;;;2.80;99.90;;;;;;5075200;28;20445;-77
2023/03/06 08:35:47;;;;;;;22.80;15.97;;;2.80;99.90;;;;;;5075418;28;20861;-77
2023/03/06 08:38:14;;;;;;;21.50;14.70;;;2.90;99.90;;;;;;5075237;28;20448;-77
2023/03/06 08:40:43;;;;;;;22.07;13.90;;;3.00;99.90;;;;;;5074492;28;20441;-77
2023/03/06 08:43:10;;;;;;;19.73;14.83;;;3.00;99.90;;;;;;5075242;28;20588;-77
2023/03/06 08:45:38;;;;;;;19.70;13.63;;;2.90;99.90;;;;;;5075209;28;20985;-77
2023/03/06 08:48:05;;;;;;;22.80;14.23;;;3.00;99.90;;;;;;5074078;28;20475;-77
2023/03/06 08:50:32;;;;;;;19.07;13.40;;;3.00;99.90;;;;;;5075069;28;20901;-77
2023/03/06 08:52:59;;;;;;;19.60;13.60;;;3.20;99.90;;;;;;5074602;28;20470;-77
2023/03/06 08:55:26;;;;;;;21.27;13.80;;;3.30;99.90;;;;;;5075152;28;20524;-77
2023/03/06 08:57:56;;;;;;;21.33;14.10;;;3.40;99.90;;;;;;5074577;28;20850;-77
2023/03/06 09:00:23;;;;;;;19.47;12.83;;;3.40;99.90;;;;;;5074135;28;20998;-77
2023/03/06 09:02:50;;;;;;;19.57;13.53;;;3.20;99.90;;;;;;5068288;28;21081;-77
2023/03/06 09:05:17;;;;;;;22.30;13.83;;;3.30;99.90;;;;;;5074376;28;20884;-77
2023/03/06 09:07:44;;;;;;;20.63;13.93;;;3.30;99.90;;;;;;5074763;28;20476;-77
2023/03/06 09:10:14;;;;;;;20.80;13.50;;;3.30;99.90;;;;;;5074575;28;20499;-77
2023/03/06 09:12:41;;;;;;;19.67;12.90;;;3.30;99.90;;;;;;5074807;28;20487;-77
2023/03/06 09:15:11;;;;;;;22.83;13.63;;;3.40;99.90;;;;;;5073845;28;20522;-77
2023/03/06 09:17:38;;;;;;;18.73;13.50;;;3.50;99.90;;;;;;5074397;28;20462;-77
2023/03/06 09:20:07;;;;;;;23.00;12.77;;;3.60;99.90;;;;;;5074254;28;20474;-77
2023/03/06 09:22:34;;;;;;;19.37;14.23;;;3.70;99.90;;;;;;5073477;28;20537;-77
2023/03/06 09:25:02;;;;;;;18.30;12.87;;;3.70;99.90;;;;;;5074352;28;20540;-77
2023/03/06 09:27:29;;;;;;;18.10;12.63;;;3.70;99.90;;;;;;5074587;28;20473;-77
2023/03/06 09:29:56;;;;;;;18.23;13.20;;;3.70;99.90;;;;;;5074275;28;20825;-77
2023/03/06 09:32:25;;;;;;;18.57;12.20;;;3.60;99.90;;;;;;5074551;28;20498;-77
2023/03/06 09:34:52;;;;;;;19.83;12.20;;;3.50;99.90;;;;;;5074165;28;20563;-77
2023/03/06 09:37:19;;;;;;;20.30;12.07;;;3.50;99.90;;;;;;5074208;28;20526;-77
2023/03/06 09:39:46;;;;;;;18.77;11.60;;;3.70;99.90;;;;;;5074496;28;20902;-77
2023/03/06 09:42:17;;;;;;;19.47;13.10;;;3.80;99.90;;;;;;5073292;28;20508;-77
2023/03/06 09:44:50;;;;;;;19.57;13.90;;;3.70;99.90;;;;;;5073204;28;20486;-77
2023/03/06 09:47:38;;;;;;;23.83;13.33;;;3.10;99.90;;;;;;5073656;28;20478;-77
2023/03/06 09:50:32;;;;;;;16.40;11.00;;;3.20;99.90;;;;;;5073526;28;20499;-77
2023/03/06 09:53:13;;;;;;;20.20;14.30;;;3.60;99.90;;;;;;5073648;28;20500;-77
2023/03/06 09:55:42;;;;;;;21.40;12.53;;;3.60;99.90;;;;;;5074045;28;20544;-77
2023/03/06 09:58:16;;;;;;;21.43;12.83;;;3.70;99.90;;;;;;5073765;28;20502;-77
2023/03/06 10:00:51;;;;;;;19.90;13.10;;;3.90;99.90;;;;;;5073223;28;20522;-77
2023/03/06 10:03:25;;;;;;;18.70;12.53;;;4.00;99.90;;;;;;5073602;28;20888;-78
2023/03/06 10:05:57;;;;;;;24.93;13.80;;;4.10;99.90;;;;;;5073510;28;20488;-77
2023/03/06 10:08:29;;;;;;;19.87;13.17;;;4.00;99.90;;;;;;5073511;28;20902;-77
2023/03/06 10:11:01;;;;;;;18.47;13.27;;;3.90;99.90;;;;;;5073584;28;20488;-77
2023/03/06 10:13:36;;;;;;;20.20;12.97;;;4.00;99.90;;;;;;5073650;28;20533;-77
2023/03/06 10:16:12;;;;;;;19.33;11.87;;;4.20;99.90;;;;;;5073683;28;20530;-77
2023/03/06 10:18:40;;;;;;;16.40;12.80;;;4.30;99.90;;;;;;5073223;28;20546;-77
2023/03/06 10:21:22;;;;;;;18.27;12.80;;;4.30;99.90;;;;;;5073561;28;20446;-77
2023/03/06 10:23:54;;;;;;;21.13;13.30;;;4.50;99.90;;;;;;5072906;28;20537;-78
2023/03/06 10:26:25;;;;;;;22.10;13.30;;;4.50;99.90;;;;;;5073034;28;20447;-77
2023/03/06 10:29:01;;;;;;;24.20;13.57;;;4.50;99.90;;;;;;5073317;28;20525;-77
2023/03/06 10:31:29;;;;;;;17.57;13.00;;;4.70;99.90;;;;;;5072747;28;20471;-77
2023/03/06 10:34:03;;;;;;;16.77;12.73;;;4.60;99.90;;;;;;5073081;28;20516;-77
2023/03/06 10:36:30;;;;;;;19.80;13.03;;;4.60;99.90;;;;;;5073147;28;20479;-77
2023/03/06 10:38:58;;;;;;;19.90;13.33;;;4.60;99.90;;;;;;5072559;28;20560;-77
2023/03/06 10:41:27;;;;;;;16.03;12.53;;;4.70;99.90;;;;;;5072157;28;20937;-77
2023/03/06 10:44:20;;;;;;;23.63;13.57;;;4.90;99.90;;;;;;5072797;28;20483;-77
2023/03/06 10:46:50;;;;;;;19.13;14.80;;;4.90;99.90;;;;;;5072318;28;20502;-77
2023/03/06 10:49:28;;;;;;;18.33;12.83;;;4.90;99.90;;;;;;5072305;28;20456;-77
2023/03/06 10:51:57;;;;;;;16.70;10.93;;;4.80;99.90;;;;;;5071915;28;20984;-77
2023/03/06 10:54:24;;;;;;;20.33;12.37;;;4.90;99.90;;;;;;5072472;28;20524;-77
2023/03/06 10:56:51;;;;;;;23.13;13.47;;;5.00;99.90;;;;;;5072744;28;20494;-77
2023/03/06 10:59:21;;;;;;;21.53;13.70;;;5.00;99.90;;;;;;5072506;28;20505;-77
2023/03/06 11:01:50;;;;;;;18.40;12.13;;;5.20;99.90;;;;;;5059375;28;20495;-77
2023/03/06 11:04:24;;;;;;;15.43;10.73;;;5.20;99.90;;;;;;5052671;28;20484;-78
2023/03/06 11:07:14;;;;;;;16.60;10.80;;;5.20;99.90;;;;;;5052877;28;20534;-77
2023/03/06 11:09:43;;;;;;;18.53;12.27;;;5.50;99.90;;;;;;5051975;28;20465;-77
2023/03/06 11:12:25;;;;;;;18.60;11.40;;;5.60;99.90;;;;;;5051897;28;20449;-77
2023/03/06 11:15:19;;;;;;;16.70;10.70;;;5.60;99.90;;;;;;5069215;28;20472;-77
2023/03/06 11:17:53;;;;;;;20.17;12.33;;;5.80;99.90;;;;;;5054619;28;20486;-78
2023/03/06 11:20:23;;;;;;;20.93;11.63;;;5.80;99.90;;;;;;5072455;28;20537;-77
2023/03/06 11:22:54;;;;;;;17.70;10.37;;;5.90;99.90;;;;;;5072212;28;20848;-77
2023/03/06 11:25:27;;;;;;;19.80;11.40;;;6.00;99.90;;;;;;5072546;28;21032;-77
2023/03/06 11:27:59;;;;;;;15.00;10.43;;;6.10;99.90;;;;;;5072402;28;20529;-77
2023/03/06 11:30:32;;;;;;;15.13;10.50;;;6.10;99.90;;;;;;5071448;28;20515;-77
2023/03/06 11:33:03;;;;;;;21.70;11.83;;;6.20;99.90;;;;;;5072228;28;20480;-77
2023/03/06 11:35:38;;;;;;;19.77;12.13;;;6.30;99.90;;;;;;5078110;28;20938;-77
2023/03/06 11:38:14;;;;;;;17.80;11.27;;;6.10;99.90;;;;;;5069388;28;20532;-77
2023/03/06 11:40:45;;;;;;;17.83;11.67;;;6.30;99.90;;;;;;5069316;28;20448;-77
2023/03/06 11:43:22;;;;;;;19.97;12.03;;;6.30;99.90;;;;;;5067844;28;20568;-77
2023/03/06 11:45:56;;;;;;;20.00;11.90;;;6.20;99.90;;;;;;5068041;28;20465;-78
2023/03/06 11:48:27;;;;;;;16.80;10.87;;;6.30;99.90;;;;;;5070631;28;20463;-78
2023/03/06 11:51:02;;;;;;;17.10;11.97;;;6.50;99.90;;;;;;5072420;28;20441;-79
2023/03/06 11:53:34;;;;;;;17.80;11.70;;;6.50;99.90;;;;;;5071050;28;20478;-77
2023/03/06 11:56:10;;;;;;;19.57;11.60;;;6.50;99.90;;;;;;5070936;28;20519;-77
2023/03/06 11:58:53;;;;;;;15.10;11.90;;;6.50;99.90;;;;;;5071060;28;20456;-77
2023/03/06 12:01:26;;;;;;;16.93;11.80;;;6.50;99.90;;;;;;5071120;28;20892;-77
2023/03/06 12:04:02;;;;;;;16.13;11.63;;;6.50;99.90;;;;;;5069752;28;20554;-77
2023/03/06 12:06:40;;;;;;;47.80;27.07;;;6.50;99.90;;;;;;5073148;28;20440;-77
2023/03/06 12:09:23;;;;;;;16.20;11.23;;;6.50;99.90;;;;;;5075268;28;20511;-77
2023/03/06 12:12:05;;;;;;;18.00;13.13;;;6.50;99.90;;;;;;5074461;28;20440;-77
2023/03/06 12:14:44;;;;;;;15.67;11.30;;;6.60;99.90;;;;;;5074954;28;20525;-77
2023/03/06 12:17:18;;;;;;;17.90;11.40;;;6.70;99.90;;;;;;5075349;28;20476;-77
2023/03/06 12:19:55;;;;;;;23.53;12.10;;;6.80;99.90;;;;;;5075328;28;20535;-77
2023/03/06 12:22:34;;;;;;;18.00;12.10;;;6.90;99.90;;;;;;5075484;28;20544;-77
2023/03/06 12:25:19;;;;;;;19.23;11.90;;;6.90;99.90;;;;;;5075587;28;21072;-77
2023/03/06 12:27:53;;;;;;;18.87;11.37;;;6.90;99.90;;;;;;5076025;28;20468;-77
2023/03/06 12:31:02;;;;;;;17.67;10.97;;;7.00;99.90;;;;;;5075346;28;20512;-77
2023/03/06 12:33:34;;;;;;;18.13;11.30;;;7.00;99.90;;;;;;5060426;28;20448;-77
2023/03/06 12:36:11;;;;;;;17.20;10.70;;;6.90;99.90;;;;;;5075191;28;21014;-78
2023/03/06 12:38:58;;;;;;;15.43;11.40;;;6.90;99.90;;;;;;5075248;28;20538;-77
2023/03/06 12:41:39;;;;;;;18.70;12.30;;;6.80;99.90;;;;;;5092732;22;20451;-47
2023/03/06 12:44:26;;;;;;;18.67;12.10;;;6.70;99.90;;;;;;5054334;28;20575;-49
2023/03/06 12:46:57;;;;;;;17.60;12.70;;;6.80;99.90;;;;;;5054487;28;20529;-50
2023/03/06 12:49:26;;;;;;;18.07;11.63;;;6.80;99.90;;;;;;5054101;28;20468;-48
2023/03/06 12:51:55;;;;;;;18.03;12.13;;;6.70;99.90;;;;;;5045111;28;20465;-48